Terminal Aerodrome Forecast
Issued by NWS

Home | Current Version | Previous Version | Text Only | Print | Product List | Glossary On
Versions: 1 2 3 4 5 6 7 8 9 10 11 12 13 14 15 16
000
FTUS46 KSEW 241100
TAFBLI
TAF
KBLI 241122Z 2412/2512 05007KT P6SM -RA OVC022
     FM241400 15010KT P6SM -SHRA BKN025 BKN040
     FM241800 16012G18KT P6SM -SHRA SCT025 BKN040
     FM250300 17007KT P6SM VCSH SCT025 BKN050=

USA.gov is the U.S. government's official web portal to all federal, state and local government web resources and services.